createdAt,value
2019-04-01T05:09:51.666Z,18.50
2019-04-01T05:12:20.417Z,19.50
2019-04-01T05:14:49.342Z,19.60
2019-04-01T05:17:18.739Z,19.70
2019-04-01T05:19:47.830Z,19.80
2019-04-01T05:22:17.185Z,19.90
2019-04-01T05:24:46.408Z,20.00
2019-04-01T05:27:15.257Z,20.10
2019-04-01T05:29:44.094Z,20.20
2019-04-01T05:32:13.469Z,20.30
2019-04-01T05:34:42.257Z,20.40
2019-04-01T05:37:11.728Z,20.40
2019-04-01T05:39:41.514Z,20.50
2019-04-01T05:42:10.591Z,20.60
2019-04-01T05:44:39.576Z,20.60
2019-04-01T05:47:08.935Z,20.70
2019-04-01T05:49:37.830Z,20.70
2019-04-01T05:52:06.611Z,20.80
2019-04-01T05:54:36.165Z,20.80
2019-04-01T05:57:05.042Z,20.90
2019-04-01T05:59:33.770Z,21.00
2019-04-01T06:02:02.960Z,21.00
2019-04-01T06:04:31.582Z,21.00
2019-04-01T06:07:00.164Z,21.10
2019-04-01T06:09:28.757Z,21.10
2019-04-01T06:11:57.642Z,21.10
2019-04-01T06:14:26.507Z,21.20
2019-04-01T06:16:55.162Z,21.20
2019-04-01T06:19:24.318Z,21.30
2019-04-01T06:21:53.252Z,21.30
2019-04-01T06:26:50.811Z,21.40
2019-04-01T06:29:19.748Z,21.40
2019-04-01T06:31:48.549Z,21.40
2019-04-01T06:34:17.574Z,21.40
2019-04-01T06:36:46.512Z,21.30
2019-04-01T06:39:15.427Z,21.30
2019-04-01T06:41:44.316Z,21.30
2019-04-01T06:44:13.203Z,21.30
2019-04-01T06:46:42.070Z,21.40
2019-04-01T06:49:11.176Z,21.40
2019-04-01T06:51:39.787Z,21.50
2019-04-01T06:54:08.694Z,21.50
2019-04-01T06:56:37.233Z,21.60
2019-04-01T06:59:06.141Z,21.60
2019-04-01T07:01:35.118Z,21.60
2019-04-01T07:04:03.696Z,21.60
2019-04-01T07:06:32.819Z,21.60
2019-04-01T07:09:02.058Z,21.70
2019-04-01T07:11:30.921Z,21.70
2019-04-01T07:13:59.638Z,21.70
2019-04-01T07:16:28.138Z,21.80
2019-04-01T07:18:56.664Z,21.80
2019-04-01T07:21:25.150Z,21.80
2019-04-01T07:23:53.914Z,21.80
2019-04-01T07:26:22.751Z,21.80
2019-04-01T07:28:51.745Z,21.80
2019-04-01T07:31:20.226Z,21.80
2019-04-01T07:33:49.111Z,21.80
2019-04-01T07:36:17.948Z,21.80
2019-04-01T07:38:46.598Z,21.80
2019-04-01T07:41:15.506Z,21.70
2019-04-01T07:43:44.648Z,21.70
2019-04-01T07:46:13.452Z,21.60
2019-04-01T07:48:42.441Z,21.60
2019-04-01T07:51:10.858Z,21.50
2019-04-01T07:53:39.640Z,21.40
2019-04-01T07:56:08.432Z,21.40
2019-04-01T07:58:36.952Z,21.30
2019-04-01T08:01:05.449Z,21.20
2019-04-01T08:03:34.110Z,21.20
2019-04-01T08:06:02.610Z,21.10
2019-04-01T08:08:31.573Z,21.00
2019-04-01T08:11:00.239Z,21.00
2019-04-01T08:13:28.987Z,20.90
2019-04-01T08:15:57.827Z,20.80
2019-04-01T08:18:26.683Z,20.70
2019-04-01T08:20:55.194Z,20.70
2019-04-01T08:23:23.881Z,20.60
2019-04-01T08:25:52.439Z,20.50
2019-04-01T08:28:23.619Z,20.50
2019-04-01T08:30:49.554Z,20.50
2019-04-01T08:33:18.231Z,20.40
2019-04-01T08:35:47.078Z,20.40
2019-04-01T08:38:15.964Z,20.30
2019-04-01T08:40:45.098Z,20.30
2019-04-01T08:43:13.608Z,20.20
2019-04-01T08:45:42.829Z,20.20
2019-04-01T08:48:11.318Z,20.20
2019-04-01T08:50:39.859Z,20.10
2019-04-01T08:53:08.985Z,20.10
2019-04-01T08:55:37.765Z,20.10
2019-04-01T08:58:06.360Z,20.10
2019-04-01T09:00:35.626Z,20.10
2019-04-01T09:03:04.433Z,20.10
2019-04-01T09:05:32.966Z,20.00
2019-04-01T09:08:01.503Z,20.10
2019-04-01T09:10:30.037Z,20.00
2019-04-01T09:12:58.723Z,20.00
2019-04-01T09:15:27.973Z,20.00
2019-04-01T09:17:56.479Z,20.00
2019-04-01T09:20:25.641Z,20.00
2019-04-01T09:22:54.648Z,20.00
2019-04-01T09:25:23.792Z,20.00
2019-04-01T09:27:52.399Z,20.00
2019-04-01T09:30:20.934Z,20.00
2019-04-01T09:32:50.088Z,20.00
2019-04-01T09:35:19.052Z,20.00
2019-04-01T09:37:47.936Z,20.00
2019-04-01T09:40:17.016Z,20.10
2019-04-01T09:42:45.867Z,20.10
2019-04-01T09:45:14.704Z,20.00
2019-04-01T09:47:44.032Z,20.10
2019-04-01T09:50:12.586Z,20.10
2019-04-01T09:52:41.235Z,20.10
2019-04-01T09:57:38.682Z,20.10
2019-04-01T10:00:07.294Z,20.10
2019-04-01T10:02:36.604Z,20.10
2019-04-01T10:05:05.602Z,20.10
2019-04-01T10:07:34.462Z,20.20
2019-04-01T10:10:03.407Z,20.20
2019-04-01T10:12:32.029Z,20.20
2019-04-01T10:15:00.662Z,20.20
2019-04-01T10:17:29.198Z,20.30
2019-04-01T10:20:00.747Z,20.30
2019-04-01T10:22:26.353Z,20.30
2019-04-01T10:24:54.913Z,20.30
2019-04-01T10:27:23.502Z,20.30
2019-04-01T10:29:52.623Z,20.30
2019-04-01T10:32:21.854Z,20.40
2019-04-01T10:34:50.737Z,20.40
2019-04-01T10:37:19.287Z,20.40
2019-04-01T10:39:48.195Z,20.40
2019-04-01T10:42:17.209Z,20.40
2019-04-01T10:44:46.518Z,20.40
2019-04-01T10:47:15.729Z,20.40
2019-04-01T10:49:44.860Z,20.40
2019-04-01T10:52:13.735Z,20.40
2019-04-01T10:54:42.225Z,20.40
2019-04-01T10:57:11.072Z,20.30
2019-04-01T10:59:39.628Z,20.40
2019-04-01T11:02:08.116Z,20.30
2019-04-01T11:04:36.630Z,20.30
2019-04-01T11:07:05.629Z,20.30
2019-04-01T11:09:38.537Z,20.30
2019-04-01T11:12:03.466Z,20.20
2019-04-01T11:14:32.384Z,20.20
2019-04-01T11:17:04.110Z,20.20
2019-04-01T11:19:30.101Z,20.20
2019-04-01T11:21:58.940Z,20.20
2019-04-01T11:24:27.914Z,20.10
2019-04-01T11:26:56.877Z,20.10
2019-04-01T11:29:26.079Z,20.10
2019-04-01T11:31:54.945Z,20.10
2019-04-01T11:34:23.812Z,20.10
2019-04-01T11:36:52.373Z,20.10
2019-04-01T11:39:21.125Z,20.10
2019-04-01T11:41:49.901Z,20.10
2019-04-01T11:44:18.321Z,20.10
2019-04-01T11:46:46.982Z,20.10
2019-04-01T11:49:15.894Z,20.10
2019-04-01T11:51:44.711Z,20.10
2019-04-01T11:54:13.451Z,20.10
2019-04-01T11:56:42.382Z,20.10
2019-04-01T11:59:10.999Z,20.10
2019-04-01T12:01:39.780Z,20.10
2019-04-01T12:04:09.025Z,20.10
2019-04-01T12:06:38.018Z,20.10
2019-04-01T12:09:07.052Z,20.10
2019-04-01T12:11:35.955Z,20.00
2019-04-01T12:14:05.502Z,20.00
2019-04-01T12:16:34.245Z,20.00
2019-04-01T12:19:02.901Z,20.00
2019-04-01T12:21:32.090Z,20.00
2019-04-01T12:24:00.606Z,20.00
2019-04-01T12:26:29.545Z,20.00
2019-04-01T12:28:58.563Z,20.00
2019-04-01T12:31:27.802Z,19.90
2019-04-01T12:33:56.367Z,19.90
2019-04-01T12:36:25.050Z,19.90
2019-04-01T12:38:54.366Z,19.90
2019-04-01T12:41:22.857Z,19.90
2019-04-01T12:43:51.886Z,19.90
2019-04-01T12:46:20.786Z,19.90
2019-04-01T12:48:50.026Z,19.90
2019-04-01T12:51:19.137Z,19.90
2019-04-01T12:53:47.631Z,19.90
2019-04-01T12:56:16.774Z,19.90
2019-04-01T12:58:45.647Z,19.90
2019-04-01T13:01:14.479Z,19.90
2019-04-01T13:03:43.218Z,19.90
2019-04-01T13:06:11.770Z,19.80
2019-04-01T13:08:40.645Z,19.90
2019-04-01T13:11:09.313Z,19.90
2019-04-01T13:16:09.035Z,19.80
2019-04-01T13:18:38.183Z,19.80
2019-04-01T13:21:05.610Z,19.80
2019-04-01T13:23:34.799Z,19.80
2019-04-01T13:26:03.264Z,19.80
2019-04-01T13:28:32.522Z,19.80
2019-04-01T13:31:01.418Z,19.80
2019-04-01T13:33:30.231Z,19.80
2019-04-01T13:35:58.766Z,19.70
2019-04-01T13:38:27.873Z,19.70
2019-04-01T13:40:56.942Z,19.70
2019-04-01T13:43:25.407Z,19.70
2019-04-01T13:45:54.299Z,19.70
2019-04-01T13:48:23.056Z,19.70
2019-04-01T13:50:51.797Z,19.70
2019-04-01T13:53:20.935Z,19.70
2019-04-01T13:55:49.934Z,19.70
2019-04-01T13:58:18.770Z,19.70
2019-04-01T14:00:48.343Z,19.70
2019-04-01T14:03:16.821Z,19.70
2019-04-01T14:05:45.807Z,19.70
2019-04-01T14:08:14.805Z,19.70
2019-04-01T14:10:43.923Z,19.70
2019-04-01T14:13:12.463Z,19.70
2019-04-01T14:15:41.375Z,19.70
2019-04-01T14:18:10.121Z,19.70
2019-04-01T14:20:38.970Z,19.70
2019-04-01T14:23:08.072Z,19.70
2019-04-01T14:25:36.783Z,19.70
2019-04-01T14:28:05.693Z,19.70
2019-04-01T14:30:36.137Z,19.70
2019-04-01T14:33:03.754Z,19.70
2019-04-01T14:35:32.331Z,19.70
2019-04-01T14:38:00.864Z,19.60
2019-04-01T14:40:32.586Z,19.70
2019-04-01T14:42:58.818Z,19.70
2019-04-01T14:45:27.343Z,19.70
2019-04-01T14:47:57.649Z,19.60
2019-04-01T14:50:24.776Z,19.60
2019-04-01T14:52:53.278Z,19.70
2019-04-01T14:55:21.851Z,19.70
2019-04-01T14:57:50.718Z,19.70
2019-04-01T15:00:19.296Z,19.70
2019-04-01T15:02:48.668Z,19.70
2019-04-01T15:05:17.188Z,19.70
2019-04-01T15:07:46.946Z,19.70
2019-04-01T15:10:15.205Z,19.70
2019-04-01T15:12:42.899Z,19.70
2019-04-01T15:15:11.705Z,19.80
2019-04-01T15:17:40.289Z,19.80
2019-04-01T15:20:08.815Z,19.80
2019-04-01T15:25:05.746Z,19.80
2019-04-01T15:27:34.244Z,19.80
2019-04-01T15:30:03.183Z,19.90
2019-04-01T15:32:32.041Z,19.90
2019-04-01T15:35:00.849Z,19.90
2019-04-01T15:37:32.105Z,19.90
2019-04-01T15:39:58.801Z,19.90
2019-04-01T15:44:56.465Z,19.90
2019-04-01T15:47:25.248Z,19.90
2019-04-01T15:49:54.312Z,19.90
2019-04-01T15:52:22.919Z,19.90
2019-04-01T15:54:51.443Z,19.90
2019-04-01T15:57:20.521Z,19.90
2019-04-01T15:59:49.565Z,20.00
2019-04-01T16:02:18.362Z,20.00
2019-04-01T16:04:47.480Z,20.00
2019-04-01T16:07:16.535Z,20.00
2019-04-01T16:09:45.257Z,20.00
2019-04-01T16:12:16.018Z,20.00
2019-04-01T16:14:43.994Z,20.00
2019-04-01T16:17:12.577Z,20.00
2019-04-01T16:19:41.085Z,20.00
2019-04-01T16:22:09.772Z,20.00
2019-04-01T16:24:38.596Z,20.00
2019-04-01T16:27:07.486Z,20.10
2019-04-01T16:29:36.502Z,20.00
2019-04-01T16:32:05.038Z,20.00
2019-04-01T16:34:34.715Z,20.00
2019-04-01T16:37:02.956Z,20.10
2019-04-01T16:39:31.808Z,20.10
2019-04-01T16:42:00.447Z,20.00
2019-04-01T16:44:29.021Z,20.10
2019-04-01T16:46:58.218Z,20.00
2019-04-01T16:49:27.232Z,20.00
2019-04-01T16:51:55.768Z,20.10
2019-04-01T16:54:24.696Z,20.00
2019-04-01T16:56:53.990Z,20.00
2019-04-01T16:59:22.516Z,20.00
2019-04-01T17:01:52.357Z,20.00
2019-04-01T17:04:20.882Z,20.00
2019-04-01T17:06:49.381Z,20.00
2019-04-01T17:09:18.214Z,20.00
2019-04-01T17:11:47.183Z,20.00
2019-04-01T17:14:16.073Z,20.00
2019-04-01T17:16:44.882Z,20.00
2019-04-01T17:19:13.462Z,20.00
2019-04-01T17:21:42.412Z,20.00
2019-04-01T17:24:11.283Z,20.00
2019-04-01T17:27:03.958Z,20.00
2019-04-01T17:29:32.880Z,20.00
2019-04-01T17:32:01.498Z,20.00
2019-04-01T17:34:30.296Z,19.90
2019-04-01T17:37:01.134Z,19.90
2019-04-01T17:39:28.304Z,19.90
2019-04-01T17:41:57.475Z,19.90
2019-04-01T17:44:26.198Z,19.90
2019-04-01T17:46:55.132Z,19.90
2019-04-01T17:49:23.990Z,19.90
2019-04-01T17:51:54.130Z,19.90
2019-04-01T17:54:21.762Z,19.90
2019-04-01T17:56:50.595Z,19.90
2019-04-01T17:59:19.554Z,19.90
2019-04-01T18:01:48.709Z,19.90
2019-04-01T18:04:17.584Z,19.90
2019-04-01T18:06:46.592Z,19.90
2019-04-01T18:09:15.441Z,19.90
2019-04-01T18:11:43.933Z,19.90
2019-04-01T18:14:12.473Z,19.90
2019-04-01T18:19:10.166Z,19.90
2019-04-01T18:21:39.172Z,19.90
2019-04-01T18:24:08.356Z,19.80
2019-04-01T18:26:36.894Z,19.80
2019-04-01T18:29:06.141Z,19.90
2019-04-01T18:31:34.784Z,19.80
2019-04-01T18:34:03.793Z,19.90
2019-04-01T18:36:34.842Z,19.90
2019-04-01T18:39:04.007Z,19.90
2019-04-01T18:41:31.124Z,19.90
2019-04-01T18:44:00.334Z,19.90
2019-04-01T18:46:29.125Z,19.90
2019-04-01T18:48:58.399Z,19.90
2019-04-01T18:51:27.384Z,19.90
2019-04-01T18:53:56.351Z,19.90
2019-04-01T18:56:25.179Z,20.00
2019-04-01T18:58:54.161Z,20.00
2019-04-01T19:01:22.872Z,20.00
2019-04-01T19:03:51.896Z,20.00
2019-04-01T19:06:21.205Z,20.10
2019-04-01T19:08:51.547Z,20.10
2019-04-01T19:11:20.512Z,20.10
2019-04-01T19:13:49.262Z,20.10
2019-04-01T19:16:18.217Z,20.10
2019-04-01T19:18:47.315Z,20.10
2019-04-01T19:21:15.858Z,20.20
2019-04-01T19:26:13.503Z,20.20
2019-04-01T19:28:42.453Z,20.20
2019-04-01T19:31:12.176Z,20.20
2019-04-01T19:33:40.606Z,20.20
2019-04-01T19:36:09.171Z,20.10
2019-04-01T19:38:38.367Z,20.10
2019-04-01T19:41:07.300Z,20.20
2019-04-01T19:43:36.534Z,20.20
2019-04-01T19:46:05.448Z,20.10
2019-04-01T19:48:34.121Z,20.10
2019-04-01T19:53:31.404Z,20.10
2019-04-01T19:56:00.266Z,20.10
2019-04-01T19:58:29.394Z,20.10
2019-04-01T20:00:57.925Z,20.10
2019-04-01T20:03:27.795Z,20.10
2019-04-01T20:08:25.011Z,20.10
2019-04-01T20:10:54.277Z,20.10
2019-04-01T20:13:23.218Z,20.00
2019-04-01T20:15:52.539Z,20.00
2019-04-01T20:18:21.489Z,20.00
2019-04-01T20:20:50.792Z,20.00
2019-04-01T20:23:19.521Z,20.00
2019-04-01T20:25:49.794Z,19.90
2019-04-01T20:28:17.155Z,19.90
2019-04-01T20:30:46.425Z,19.90
2019-04-01T20:33:17.886Z,19.90
2019-04-01T20:35:44.319Z,19.90
2019-04-01T20:38:13.422Z,19.90
2019-04-01T20:40:42.564Z,19.90
2019-04-01T20:43:11.509Z,19.90
2019-04-01T20:45:40.023Z,19.80
2019-04-01T20:50:37.609Z,19.80
2019-04-01T20:53:06.399Z,19.80
2019-04-01T20:55:47.697Z,19.80
